createdAt,value
2022-08-03T00:01:36.213Z,24.74
2022-08-03T00:04:38.910Z,24.74
2022-08-03T00:07:41.262Z,24.71
2022-08-03T00:10:44.073Z,24.73
2022-08-03T00:13:46.359Z,24.66
2022-08-03T00:16:49.099Z,24.64
2022-08-03T00:19:51.751Z,24.62
2022-08-03T00:22:54.494Z,24.60
2022-08-03T00:25:57.173Z,24.58
2022-08-03T00:28:59.873Z,24.56
2022-08-03T00:32:02.070Z,24.50
2022-08-03T00:35:08.119Z,24.48
2022-08-03T00:38:12.639Z,24.47
2022-08-03T00:41:15.718Z,24.44
2022-08-03T00:44:18.042Z,24.41
2022-08-03T00:47:21.669Z,24.38
2022-08-03T00:50:24.862Z,24.32
2022-08-03T00:53:27.695Z,24.30
2022-08-03T00:56:30.058Z,24.28
2022-08-03T00:59:32.831Z,24.31
2022-08-03T01:02:35.210Z,24.23
2022-08-03T01:05:58.147Z,24.21
2022-08-03T01:09:00.369Z,24.16
2022-08-03T01:12:03.039Z,24.14
2022-08-03T01:15:23.733Z,24.13
2022-08-03T01:18:37.403Z,24.11
2022-08-03T01:21:58.108Z,24.15
2022-08-03T01:25:14.657Z,24.12
2022-08-03T01:28:20.032Z,24.13
2022-08-03T01:31:26.121Z,24.09
2022-08-03T01:34:31.491Z,24.06
2022-08-03T01:37:39.951Z,24.04
2022-08-03T01:40:43.535Z,24.04
2022-08-03T01:44:28.487Z,24.05
2022-08-03T01:47:12.808Z,24.03
2022-08-03T01:50:16.867Z,24.00
2022-08-03T01:53:21.330Z,24.01
2022-08-03T01:56:25.062Z,23.98
2022-08-03T01:59:29.056Z,23.92
2022-08-03T02:02:34.584Z,23.93
2022-08-03T02:05:39.279Z,23.89
2022-08-03T02:08:43.343Z,23.87
2022-08-03T02:11:46.785Z,23.81
2022-08-03T02:14:50.237Z,23.82
2022-08-03T02:17:53.490Z,23.88
2022-08-03T02:20:56.025Z,23.84
2022-08-03T02:23:58.778Z,23.85
2022-08-03T02:27:01.353Z,23.77
2022-08-03T02:30:07.518Z,23.70
2022-08-03T02:33:12.316Z,23.69
2022-08-03T02:36:15.612Z,23.66
2022-08-03T02:39:20.672Z,23.62
2022-08-03T02:42:24.125Z,23.58
2022-08-03T02:45:27.934Z,23.54
2022-08-03T02:48:32.741Z,23.51
2022-08-03T02:51:36.542Z,23.56
2022-08-03T02:54:39.828Z,23.47
2022-08-03T02:57:43.436Z,23.44
2022-08-03T03:00:46.270Z,23.41
2022-08-03T03:03:49.843Z,23.39
2022-08-03T03:06:54.096Z,23.36
2022-08-03T03:09:58.369Z,23.35
2022-08-03T03:13:00.942Z,23.33
2022-08-03T03:16:04.801Z,23.34
2022-08-03T03:19:07.825Z,23.31
2022-08-03T03:22:10.818Z,23.27
2022-08-03T03:25:13.259Z,23.38
2022-08-03T03:28:15.745Z,23.24
2022-08-03T03:31:18.338Z,23.25
2022-08-03T03:34:20.981Z,23.19
2022-08-03T03:37:23.860Z,23.11
2022-08-03T03:40:26.813Z,23.19
2022-08-03T03:43:29.558Z,23.23
2022-08-03T03:46:32.087Z,23.21
2022-08-03T03:49:34.776Z,23.17
2022-08-03T03:52:37.478Z,23.18
2022-08-03T03:55:58.984Z,23.10
2022-08-03T03:59:03.245Z,23.18
2022-08-03T04:02:06.517Z,23.15
2022-08-03T04:05:28.426Z,23.23
2022-08-03T04:08:49.402Z,23.08
2022-08-03T04:11:53.287Z,23.09
2022-08-03T04:14:56.982Z,23.08
2022-08-03T04:18:00.447Z,23.11
2022-08-03T04:21:03.713Z,23.19
2022-08-03T04:24:08.416Z,23.20
2022-08-03T04:27:12.806Z,23.18
2022-08-03T04:30:16.007Z,23.23
2022-08-03T04:33:19.498Z,23.34
2022-08-03T04:36:25.077Z,23.34
2022-08-03T04:39:28.503Z,23.49
2022-08-03T04:42:32.729Z,23.47
2022-08-03T04:45:35.764Z,23.54
2022-08-03T04:48:43.516Z,23.46
2022-08-03T04:51:48.002Z,23.61
2022-08-03T04:54:51.233Z,23.72
2022-08-03T04:57:53.571Z,23.58
2022-08-03T05:00:56.256Z,23.60
2022-08-03T05:03:58.604Z,23.72
2022-08-03T05:07:12.319Z,23.78
2022-08-03T05:10:16.305Z,23.93
2022-08-03T05:13:20.296Z,23.93
2022-08-03T05:16:22.552Z,23.96
2022-08-03T05:19:25.270Z,24.00
2022-08-03T05:22:27.636Z,24.04
2022-08-03T05:25:30.623Z,24.08
2022-08-03T05:28:32.896Z,24.18
2022-08-03T05:31:35.717Z,24.14
2022-08-03T05:34:38.043Z,24.20
2022-08-03T05:37:40.733Z,24.27
2022-08-03T05:41:22.580Z,24.29
2022-08-03T05:44:20.128Z,24.40
2022-08-03T05:47:22.655Z,24.50
2022-08-03T05:50:25.597Z,24.58
2022-08-03T05:53:27.816Z,24.69
2022-08-03T05:56:30.712Z,24.68
2022-08-03T05:59:38.518Z,24.77
2022-08-03T06:02:42.182Z,24.92
2022-08-03T06:05:55.579Z,25.03
2022-08-03T06:09:02.932Z,25.14
2022-08-03T06:12:05.494Z,25.13
2022-08-03T06:15:08.326Z,25.20
2022-08-03T06:18:14.228Z,25.26
2022-08-03T06:21:16.740Z,25.43
2022-08-03T06:24:19.322Z,25.57
2022-08-03T06:27:36.416Z,25.72
2022-08-03T06:30:40.313Z,25.93
2022-08-03T06:33:48.312Z,26.07
2022-08-03T06:37:05.883Z,26.19
2022-08-03T06:40:08.610Z,26.35
2022-08-03T06:43:12.711Z,26.54
2022-08-03T06:46:16.352Z,26.62
2022-08-03T06:49:19.196Z,26.87
2022-08-03T06:52:37.566Z,27.07
2022-08-03T06:55:42.502Z,27.25
2022-08-03T06:58:45.405Z,27.46
2022-08-03T07:01:48.124Z,27.75
2022-08-03T07:04:50.666Z,27.98
2022-08-03T07:07:57.654Z,28.15
2022-08-03T07:11:00.193Z,28.30
2022-08-03T07:14:02.770Z,28.42
2022-08-03T07:17:11.828Z,28.73
2022-08-03T07:20:15.290Z,28.90
2022-08-03T07:23:19.340Z,29.10
2022-08-03T07:26:22.712Z,29.31
2022-08-03T07:29:25.266Z,29.55
2022-08-03T07:32:31.473Z,29.89
2022-08-03T07:35:34.221Z,29.85
2022-08-03T07:38:39.790Z,30.07
2022-08-03T07:41:42.289Z,30.42
2022-08-03T07:44:44.771Z,30.60
2022-08-03T07:47:53.650Z,30.81
2022-08-03T07:50:56.607Z,31.05
2022-08-03T07:54:00.787Z,31.29
2022-08-03T07:57:03.448Z,31.61
2022-08-03T08:00:07.440Z,32.06
2022-08-03T08:03:14.319Z,32.31
2022-08-03T08:06:18.352Z,32.56
2022-08-03T08:09:20.538Z,32.75
2022-08-03T08:12:23.305Z,33.13
2022-08-03T08:15:25.683Z,33.43
2022-08-03T08:18:31.836Z,33.72
2022-08-03T08:21:53.025Z,34.18
2022-08-03T08:24:56.994Z,34.74
2022-08-03T08:28:29.927Z,34.64
2022-08-03T08:31:25.271Z,34.86
2022-08-03T08:34:27.532Z,35.28
2022-08-03T08:37:30.329Z,35.70
2022-08-03T08:40:32.943Z,36.21
2022-08-03T08:43:35.702Z,36.26
2022-08-03T08:46:38.508Z,35.55
2022-08-03T08:49:53.460Z,35.70
2022-08-03T08:53:06.362Z,36.15
2022-08-03T08:56:16.982Z,36.95
2022-08-03T08:59:20.318Z,37.59
2022-08-03T09:02:29.264Z,37.68
2022-08-03T09:05:54.857Z,38.06
2022-08-03T09:08:56.077Z,38.76
2022-08-03T09:12:20.843Z,39.48
2022-08-03T09:15:22.677Z,39.81
2022-08-03T09:18:29.003Z,40.18
2022-08-03T09:21:35.413Z,40.62
2022-08-03T09:24:41.440Z,41.15
2022-08-03T09:27:45.141Z,41.46
2022-08-03T09:30:59.849Z,41.60
2022-08-03T09:34:07.305Z,41.76
2022-08-03T09:37:14.985Z,42.02
2022-08-03T09:40:34.063Z,42.21
2022-08-03T09:43:46.162Z,42.71
2022-08-03T09:46:52.676Z,43.06
2022-08-03T09:50:13.036Z,43.24
2022-08-03T09:53:15.979Z,43.52
2022-08-03T09:56:34.378Z,43.92
2022-08-03T09:59:41.406Z,43.39
2022-08-03T10:02:44.707Z,43.20
2022-08-03T10:05:47.554Z,43.63
2022-08-03T10:09:10.148Z,43.72
2022-08-03T10:12:13.833Z,43.01
2022-08-03T10:16:23.785Z,43.27
2022-08-03T10:18:39.187Z,43.88
2022-08-03T10:21:49.424Z,44.48
2022-08-03T10:24:54.308Z,44.93
2022-08-03T10:27:57.383Z,45.32
2022-08-03T10:31:00.913Z,45.22
2022-08-03T10:34:05.002Z,44.97
2022-08-03T10:37:10.248Z,44.64
2022-08-03T10:40:27.861Z,42.56
2022-08-03T10:43:56.695Z,40.24
2022-08-03T10:46:59.160Z,38.35
2022-08-03T10:50:02.265Z,38.99
2022-08-03T10:53:08.942Z,39.87
2022-08-03T10:56:50.680Z,40.90
2022-08-03T10:59:55.772Z,41.71
2022-08-03T11:03:14.441Z,42.62
2022-08-03T11:06:19.081Z,42.32
2022-08-03T11:09:22.243Z,42.15
2022-08-03T11:12:30.167Z,42.08
2022-08-03T11:15:34.876Z,41.07
2022-08-03T11:18:37.121Z,39.64
2022-08-03T11:21:51.958Z,38.37
2022-08-03T11:24:54.448Z,37.27
2022-08-03T11:28:19.866Z,36.45
2022-08-03T11:31:46.802Z,35.87
2022-08-03T11:35:03.857Z,35.34
2022-08-03T11:38:07.320Z,34.95
2022-08-03T11:41:30.031Z,34.63
2022-08-03T11:44:50.589Z,35.49
2022-08-03T11:47:54.680Z,37.14
2022-08-03T11:50:57.066Z,38.20
2022-08-03T11:54:01.501Z,39.20
2022-08-03T11:57:03.838Z,39.80
2022-08-03T12:00:27.562Z,40.32
2022-08-03T12:03:32.687Z,39.79
2022-08-03T12:06:54.813Z,38.96
2022-08-03T12:10:14.491Z,38.96
2022-08-03T12:14:44.210Z,39.33
2022-08-03T12:16:40.398Z,40.01
2022-08-03T12:19:44.615Z,40.08
2022-08-03T12:22:47.097Z,40.22
2022-08-03T12:25:49.696Z,40.38
2022-08-03T12:28:52.442Z,40.26
2022-08-03T12:31:55.970Z,40.05
2022-08-03T12:35:01.386Z,40.07
2022-08-03T12:38:05.138Z,40.13
2022-08-03T12:41:08.835Z,40.29
2022-08-03T12:44:11.381Z,40.61
2022-08-03T12:47:18.801Z,40.48
2022-08-03T12:50:34.264Z,40.13
2022-08-03T12:53:37.095Z,39.33
2022-08-03T12:56:56.875Z,38.62
2022-08-03T13:00:17.430Z,38.35
2022-08-03T13:03:42.626Z,38.68
2022-08-03T13:07:02.452Z,38.84
2022-08-03T13:10:08.185Z,38.48
2022-08-03T13:13:11.196Z,38.47
2022-08-03T13:16:18.985Z,38.84
2022-08-03T13:19:21.997Z,39.01
2022-08-03T13:22:30.455Z,39.01
2022-08-03T13:25:32.996Z,39.16
2022-08-03T13:28:35.441Z,39.23
2022-08-03T13:31:37.988Z,39.24
2022-08-03T13:34:53.759Z,38.98
2022-08-03T13:37:56.329Z,39.03
2022-08-03T13:41:01.086Z,39.08
2022-08-03T13:44:29.431Z,39.03
2022-08-03T13:47:29.927Z,38.78
2022-08-03T13:50:33.232Z,38.30
2022-08-03T13:53:35.691Z,38.05
2022-08-03T13:56:38.345Z,38.10
2022-08-03T13:59:40.788Z,38.29
2022-08-03T14:02:44.420Z,38.12
2022-08-03T14:05:48.199Z,38.10
2022-08-03T14:08:51.018Z,37.96
2022-08-03T14:12:08.378Z,37.91
2022-08-03T14:15:13.046Z,37.57
2022-08-03T14:18:27.860Z,37.41
2022-08-03T14:21:34.511Z,37.44
2022-08-03T14:24:37.216Z,37.45
2022-08-03T14:27:39.460Z,37.37
2022-08-03T14:30:42.120Z,37.40
2022-08-03T14:33:44.356Z,37.39
2022-08-03T14:36:47.257Z,37.41
2022-08-03T14:40:05.174Z,37.29
2022-08-03T14:43:07.998Z,37.09
2022-08-03T14:46:10.198Z,36.96
2022-08-03T14:50:30.698Z,36.79
2022-08-03T14:52:37.978Z,36.64
2022-08-03T14:55:50.264Z,36.57
2022-08-03T14:58:53.289Z,36.52
2022-08-03T15:02:02.978Z,36.41
2022-08-03T15:05:10.754Z,36.36
2022-08-03T15:08:13.574Z,36.24
2022-08-03T15:11:15.908Z,36.18
2022-08-03T15:14:18.688Z,35.76
2022-08-03T15:17:24.643Z,35.41
2022-08-03T15:20:42.460Z,35.39
2022-08-03T15:23:48.759Z,35.42
2022-08-03T15:26:52.304Z,35.08
2022-08-03T15:30:07.283Z,34.98
2022-08-03T15:33:12.454Z,34.93
2022-08-03T15:36:14.805Z,34.96
2022-08-03T15:39:19.654Z,34.92
2022-08-03T15:42:22.021Z,34.90
2022-08-03T15:45:28.252Z,34.81
2022-08-03T15:48:37.733Z,34.61
2022-08-03T15:51:40.433Z,34.45
2022-08-03T15:54:42.879Z,34.45
2022-08-03T15:59:04.324Z,34.25
2022-08-03T16:01:08.402Z,34.18
2022-08-03T16:04:11.249Z,34.02
2022-08-03T16:07:15.784Z,33.93
2022-08-03T16:10:18.728Z,33.85
2022-08-03T16:13:20.997Z,33.72
2022-08-03T16:16:23.723Z,33.48
2022-08-03T16:19:25.967Z,33.41
2022-08-03T16:22:28.651Z,33.35
2022-08-03T16:25:32.359Z,33.22
2022-08-03T16:28:38.056Z,33.22
2022-08-03T16:31:40.343Z,33.14
2022-08-03T16:34:54.139Z,33.02
2022-08-03T16:37:57.050Z,32.86
2022-08-03T16:41:00.028Z,32.83
2022-08-03T16:44:04.370Z,32.73
2022-08-03T16:47:21.922Z,32.62
2022-08-03T16:50:24.891Z,32.51
2022-08-03T16:53:51.767Z,32.36
2022-08-03T16:56:49.952Z,32.30
2022-08-03T16:59:52.650Z,32.27
2022-08-03T17:02:56.220Z,32.13
2022-08-03T17:05:59.664Z,32.01
2022-08-03T17:09:08.349Z,31.96
2022-08-03T17:12:13.010Z,31.93
2022-08-03T17:15:15.259Z,31.81
2022-08-03T17:18:19.162Z,31.74
2022-08-03T17:21:29.406Z,31.71
2022-08-03T17:24:35.059Z,31.51
2022-08-03T17:28:49.199Z,31.39
2022-08-03T17:31:23.040Z,31.27
2022-08-03T17:34:33.374Z,31.11
2022-08-03T17:37:57.915Z,31.09
2022-08-03T17:40:58.749Z,30.93
2022-08-03T17:44:15.668Z,30.81
2022-08-03T17:47:23.858Z,30.70
2022-08-03T17:50:41.462Z,30.69
2022-08-03T17:54:05.975Z,30.58
2022-08-03T17:57:29.014Z,30.46
2022-08-03T18:01:59.567Z,30.38
2022-08-03T18:04:42.203Z,30.29
2022-08-03T18:08:00.905Z,30.18
2022-08-03T18:11:14.555Z,30.09
2022-08-03T18:14:29.828Z,30.08
2022-08-03T18:17:54.658Z,29.99
2022-08-03T18:20:57.143Z,29.94
2022-08-03T18:24:02.894Z,29.86
2022-08-03T18:27:06.509Z,29.78
2022-08-03T18:30:09.518Z,29.72
2022-08-03T18:34:16.431Z,29.69
2022-08-03T18:36:45.921Z,29.63
2022-08-03T18:39:50.153Z,29.56
2022-08-03T18:42:55.815Z,29.47
2022-08-03T18:46:00.909Z,29.37
2022-08-03T18:49:08.221Z,29.30
2022-08-03T18:52:16.788Z,29.21
2022-08-03T18:55:40.614Z,29.16
2022-08-03T18:59:12.152Z,29.08
2022-08-03T19:02:38.783Z,29.00
2022-08-03T19:06:02.737Z,28.92
2022-08-03T19:09:20.125Z,28.86
2022-08-03T19:12:27.232Z,28.83
2022-08-03T19:15:51.394Z,28.76
2022-08-03T19:18:54.159Z,28.72
2022-08-03T19:21:58.504Z,28.65
2022-08-03T19:25:03.941Z,28.62
2022-08-03T19:28:07.415Z,28.61
2022-08-03T19:31:11.072Z,28.56
2022-08-03T19:34:18.406Z,28.52
2022-08-03T19:37:22.064Z,28.50
2022-08-03T19:40:26.795Z,28.49
2022-08-03T19:43:32.909Z,28.44
2022-08-03T19:47:00.577Z,28.40
2022-08-03T19:50:13.810Z,28.40
2022-08-03T19:53:17.727Z,28.37
2022-08-03T19:56:22.982Z,28.36
2022-08-03T19:59:26.719Z,28.35
2022-08-03T20:02:29.892Z,28.33
2022-08-03T20:05:45.131Z,28.29
2022-08-03T20:08:55.383Z,28.26
2022-08-03T20:12:01.941Z,28.22
2022-08-03T20:15:05.735Z,28.19
2022-08-03T20:18:08.781Z,28.17
2022-08-03T20:21:23.202Z,28.12
2022-08-03T20:24:28.038Z,28.05
2022-08-03T20:27:34.316Z,28.00
2022-08-03T20:30:57.160Z,27.95
2022-08-03T20:34:02.198Z,27.87
2022-08-03T20:37:05.051Z,27.82
2022-08-03T20:40:11.944Z,27.76
2022-08-03T20:43:15.798Z,27.72
2022-08-03T20:46:31.867Z,27.69
2022-08-03T20:49:45.985Z,27.65
2022-08-03T20:52:49.941Z,27.61
2022-08-03T20:56:02.123Z,27.57
2022-08-03T20:59:06.343Z,27.52
2022-08-03T21:02:11.703Z,27.50
2022-08-03T21:05:48.007Z,27.45
2022-08-03T21:08:48.104Z,27.41
2022-08-03T21:11:51.334Z,27.32
2022-08-03T21:15:02.195Z,27.29
2022-08-03T21:18:10.169Z,27.23
2022-08-03T21:21:14.091Z,27.20
2022-08-03T21:24:17.990Z,27.15
2022-08-03T21:27:20.870Z,27.11
2022-08-03T21:30:24.398Z,27.06
2022-08-03T21:33:27.842Z,27.02
2022-08-03T21:36:31.471Z,26.95
2022-08-03T21:39:34.688Z,26.90
2022-08-03T21:42:36.955Z,26.88
2022-08-03T21:45:45.657Z,26.80
2022-08-03T21:48:50.159Z,26.75
2022-08-03T21:51:54.068Z,26.72
2022-08-03T21:55:00.255Z,26.67
2022-08-03T21:58:04.184Z,26.66
2022-08-03T22:01:07.365Z,26.66
2022-08-03T22:04:11.941Z,26.64
2022-08-03T22:07:34.010Z,26.62
2022-08-03T22:10:36.917Z,26.62
2022-08-03T22:13:43.312Z,26.59
2022-08-03T22:16:49.117Z,26.57
2022-08-03T22:19:51.968Z,26.57
2022-08-03T22:22:56.937Z,26.54
2022-08-03T22:25:59.962Z,26.50
2022-08-03T22:29:06.119Z,26.46
2022-08-03T22:32:08.544Z,26.41
2022-08-03T22:35:12.748Z,26.37
2022-08-03T22:38:15.449Z,26.34
2022-08-03T22:41:18.855Z,26.31
2022-08-03T22:44:21.969Z,26.29
2022-08-03T22:47:24.903Z,26.27
2022-08-03T22:50:33.200Z,26.24
2022-08-03T22:53:36.761Z,26.23
2022-08-03T22:56:39.078Z,26.21
2022-08-03T22:59:44.739Z,26.18
2022-08-03T23:02:48.168Z,26.17
2022-08-03T23:06:02.592Z,26.15
2022-08-03T23:09:06.840Z,26.13
2022-08-03T23:12:13.640Z,26.09
2022-08-03T23:15:16.182Z,26.13
2022-08-03T23:18:19.530Z,26.14
2022-08-03T23:21:53.644Z,26.18
2022-08-03T23:24:44.693Z,26.07
2022-08-03T23:27:49.298Z,25.96
2022-08-03T23:31:08.623Z,25.90
2022-08-03T23:34:31.242Z,25.97
2022-08-03T23:37:34.724Z,25.91
2022-08-03T23:41:01.882Z,25.81
2022-08-03T23:44:05.104Z,25.75
2022-08-03T23:47:07.402Z,25.72
2022-08-03T23:50:10.051Z,25.68
2022-08-03T23:53:17.088Z,25.65
2022-08-03T23:56:52.151Z,25.62
2022-08-03T23:59:54.405Z,25.55
